sensor_id;sensor_type;location;lat;lon;timestamp;pressure;altitude;pressure_sealevel;temperature;humidity
10618;BME280;5356;43.526;26.534;2023-01-25T00:00:43;100725.00;;;3.03;100.00
10618;BME280;5356;43.526;26.534;2023-01-25T00:03:08;100727.50;;;2.95;100.00
10618;BME280;5356;43.526;26.534;2023-01-25T00:05:34;100725.72;;;3.05;100.00
10618;BME280;5356;43.526;26.534;2023-01-25T00:07:59;100723.66;;;3.08;100.00
10618;BME280;5356;43.526;26.534;2023-01-25T00:10:25;100721.00;;;2.99;100.00
10618;BME280;5356;43.526;26.534;2023-01-25T00:12:50;100723.34;;;3.02;100.00
10618;BME280;5356;43.526;26.534;2023-01-25T00:15:16;100710.63;;;3.07;100.00
10618;BME280;5356;43.526;26.534;2023-01-25T00:17:41;100719.09;;;3.10;100.00
10618;BME280;5356;43.526;26.534;2023-01-25T00:20:08;100717.38;;;3.00;100.00
10618;BME280;5356;43.526;26.534;2023-01-25T00:22:33;100708.63;;;2.89;100.00
10618;BME280;5356;43.526;26.534;2023-01-25T00:24:59;100711.56;;;2.96;100.00
10618;BME280;5356;43.526;26.534;2023-01-25T00:27:24;100717.25;;;3.01;100.00
10618;BME280;5356;43.526;26.534;2023-01-25T00:29:49;100715.44;;;3.02;100.00
10618;BME280;5356;43.526;26.534;2023-01-25T00:34:45;100717.91;;;2.93;100.00
10618;BME280;5356;43.526;26.534;2023-01-25T00:39:58;100710.47;;;2.99;100.00
10618;BME280;5356;43.526;26.534;2023-01-25T00:42:23;100701.06;;;3.06;100.00
10618;BME280;5356;43.526;26.534;2023-01-25T00:44:49;100707.38;;;2.93;100.00
10618;BME280;5356;43.526;26.534;2023-01-25T00:47:15;100706.03;;;2.99;100.00
10618;BME280;5356;43.526;26.534;2023-01-25T00:49:41;100708.13;;;3.05;100.00
10618;BME280;5356;43.526;26.534;2023-01-25T00:52:08;100711.00;;;2.92;100.00
10618;BME280;5356;43.526;26.534;2023-01-25T00:54:34;100709.94;;;2.74;100.00
10618;BME280;5356;43.526;26.534;2023-01-25T00:56:59;100719.13;;;2.59;100.00
10618;BME280;5356;43.526;26.534;2023-01-25T00:59:25;100718.44;;;2.57;100.00
10618;BME280;5356;43.526;26.534;2023-01-25T01:01:52;100716.53;;;2.68;100.00
10618;BME280;5356;43.526;26.534;2023-01-25T01:04:18;100719.59;;;2.64;100.00
10618;BME280;5356;43.526;26.534;2023-01-25T01:06:44;100709.13;;;2.53;100.00
10618;BME280;5356;43.526;26.534;2023-01-25T01:09:13;100703.69;;;2.44;100.00
10618;BME280;5356;43.526;26.534;2023-01-25T01:11:39;100706.06;;;2.47;100.00
10618;BME280;5356;43.526;26.534;2023-01-25T01:14:04;100705.16;;;2.37;100.00
10618;BME280;5356;43.526;26.534;2023-01-25T01:16:30;100701.50;;;2.08;100.00
10618;BME280;5356;43.526;26.534;2023-01-25T01:18:56;100702.34;;;2.08;100.00
10618;BME280;5356;43.526;26.534;2023-01-25T01:21:22;100696.97;;;2.10;100.00
10618;BME280;5356;43.526;26.534;2023-01-25T01:23:48;100695.84;;;2.12;100.00
10618;BME280;5356;43.526;26.534;2023-01-25T01:26:15;100692.72;;;2.18;100.00
10618;BME280;5356;43.526;26.534;2023-01-25T01:28:43;100692.84;;;2.17;100.00
10618;BME280;5356;43.526;26.534;2023-01-25T01:31:17;100693.25;;;2.33;100.00
10618;BME280;5356;43.526;26.534;2023-01-25T01:33:42;100685.13;;;2.46;100.00
10618;BME280;5356;43.526;26.534;2023-01-25T01:36:13;100680.06;;;2.54;100.00
10618;BME280;5356;43.526;26.534;2023-01-25T01:38:40;100682.03;;;2.62;100.00
10618;BME280;5356;43.526;26.534;2023-01-25T01:41:06;100675.63;;;2.55;100.00
10618;BME280;5356;43.526;26.534;2023-01-25T01:43:32;100675.53;;;2.66;100.00
10618;BME280;5356;43.526;26.534;2023-01-25T01:45:59;100675.72;;;2.74;100.00
10618;BME280;5356;43.526;26.534;2023-01-25T01:53:33;100667.16;;;2.82;100.00
10618;BME280;5356;43.526;26.534;2023-01-25T01:56:01;100658.97;;;2.44;100.00
10618;BME280;5356;43.526;26.534;2023-01-25T01:58:29;100660.59;;;2.36;100.00
10618;BME280;5356;43.526;26.534;2023-01-25T02:00:55;100665.09;;;2.24;100.00
10618;BME280;5356;43.526;26.534;2023-01-25T02:03:21;100663.09;;;2.37;100.00
10618;BME280;5356;43.526;26.534;2023-01-25T02:06:01;100657.81;;;2.37;100.00
10618;BME280;5356;43.526;26.534;2023-01-25T02:08:31;100663.09;;;2.37;100.00
10618;BME280;5356;43.526;26.534;2023-01-25T02:10:58;100665.09;;;2.24;100.00
10618;BME280;5356;43.526;26.534;2023-01-25T02:13:25;100652.53;;;2.28;100.00
10618;BME280;5356;43.526;26.534;2023-01-25T02:15:52;100651.94;;;2.24;100.00
10618;BME280;5356;43.526;26.534;2023-01-25T02:18:20;100659.97;;;2.22;100.00
10618;BME280;5356;43.526;26.534;2023-01-25T02:20:50;100658.69;;;2.17;100.00
10618;BME280;5356;43.526;26.534;2023-01-25T02:25:55;100660.59;;;2.15;100.00
10618;BME280;5356;43.526;26.534;2023-01-25T02:30:57;100657.53;;;2.10;100.00
10618;BME280;5356;43.526;26.534;2023-01-25T02:33:24;100662.47;;;2.03;100.00
10618;BME280;5356;43.526;26.534;2023-01-25T02:35:57;100663.59;;;1.89;100.00
10618;BME280;5356;43.526;26.534;2023-01-25T02:38:24;100662.44;;;1.82;100.00
10618;BME280;5356;43.526;26.534;2023-01-25T02:41:03;100657.19;;;1.82;100.00
10618;BME280;5356;43.526;26.534;2023-01-25T02:43:34;100658.09;;;1.92;100.00
10618;BME280;5356;43.526;26.534;2023-01-25T02:46:10;100655.34;;;1.94;100.00
10618;BME280;5356;43.526;26.534;2023-01-25T02:48:38;100650.81;;;1.96;100.00
10618;BME280;5356;43.526;26.534;2023-01-25T02:51:06;100650.59;;;1.88;100.00
10618;BME280;5356;43.526;26.534;2023-01-25T02:53:32;100648.69;;;1.90;100.00
10618;BME280;5356;43.526;26.534;2023-01-25T02:55:57;100657.00;;;1.95;100.00
10618;BME280;5356;43.526;26.534;2023-01-25T02:58:23;100654.69;;;1.80;100.00
10618;BME280;5356;43.526;26.534;2023-01-25T03:00:48;100650.25;;;1.81;100.00
10618;BME280;5356;43.526;26.534;2023-01-25T03:03:14;100647.16;;;1.87;100.00
10618;BME280;5356;43.526;26.534;2023-01-25T03:05:39;100650.72;;;1.86;100.00
10618;BME280;5356;43.526;26.534;2023-01-25T03:08:04;100651.06;;;1.93;100.00
10618;BME280;5356;43.526;26.534;2023-01-25T03:10:30;100650.09;;;1.94;100.00
10618;BME280;5356;43.526;26.534;2023-01-25T03:12:55;100647.09;;;1.98;100.00
10618;BME280;5356;43.526;26.534;2023-01-25T03:15:21;100653.34;;;1.86;100.00
10618;BME280;5356;43.526;26.534;2023-01-25T03:17:46;100652.97;;;1.91;100.00
10618;BME280;5356;43.526;26.534;2023-01-25T03:20:12;100657.34;;;2.01;100.00
10618;BME280;5356;43.526;26.534;2023-01-25T03:22:37;100659.19;;;1.90;100.00
10618;BME280;5356;43.526;26.534;2023-01-25T03:25:03;100663.78;;;1.76;100.00
10618;BME280;5356;43.526;26.534;2023-01-25T03:27:29;100655.44;;;1.71;100.00
10618;BME280;5356;43.526;26.534;2023-01-25T03:29:55;100651.94;;;1.82;100.00
10618;BME280;5356;43.526;26.534;2023-01-25T03:32:20;100659.31;;;1.88;100.00
10618;BME280;5356;43.526;26.534;2023-01-25T03:34:46;100658.09;;;1.92;100.00
10618;BME280;5356;43.526;26.534;2023-01-25T03:37:11;100663.75;;;1.88;100.00
10618;BME280;5356;43.526;26.534;2023-01-25T03:39:37;100651.13;;;1.82;100.00
10618;BME280;5356;43.526;26.534;2023-01-25T03:42:02;100655.66;;;1.79;100.00
10618;BME280;5356;43.526;26.534;2023-01-25T03:44:28;100655.84;;;1.88;100.00
10618;BME280;5356;43.526;26.534;2023-01-25T03:46:53;100661.69;;;1.91;100.00
10618;BME280;5356;43.526;26.534;2023-01-25T03:49:19;100664.69;;;1.87;100.00
10618;BME280;5356;43.526;26.534;2023-01-25T03:51:44;100661.88;;;1.78;100.00
10618;BME280;5356;43.526;26.534;2023-01-25T03:54:09;100652.09;;;1.69;100.00
10618;BME280;5356;43.526;26.534;2023-01-25T03:56:36;100656.63;;;1.78;100.00
10618;BME280;5356;43.526;26.534;2023-01-25T03:59:02;100660.88;;;1.59;100.00
10618;BME280;5356;43.526;26.534;2023-01-25T04:01:28;100658.69;;;1.64;100.00
10618;BME280;5356;43.526;26.534;2023-01-25T04:03:53;100662.03;;;1.66;100.00
10618;BME280;5356;43.526;26.534;2023-01-25T04:06:19;100660.34;;;1.76;100.00
10618;BME280;5356;43.526;26.534;2023-01-25T04:08:44;100659.38;;;1.77;100.00
10618;BME280;5356;43.526;26.534;2023-01-25T04:11:10;100657.66;;;1.87;100.00
10618;BME280;5356;43.526;26.534;2023-01-25T04:13:37;100657.19;;;2.03;100.00
10618;BME280;5356;43.526;26.534;2023-01-25T04:16:03;100661.00;;;2.10;100.00
10618;BME280;5356;43.526;26.534;2023-01-25T04:18:29;100664.72;;;2.08;100.00
10618;BME280;5356;43.526;26.534;2023-01-25T04:20:56;100667.25;;;1.98;100.00
10618;BME280;5356;43.526;26.534;2023-01-25T04:23:22;100659.25;;;1.99;100.00
10618;BME280;5356;43.526;26.534;2023-01-25T04:25:59;100655.53;;;2.02;100.00
10618;BME280;5356;43.526;26.534;2023-01-25T04:28:25;100666.47;;;1.86;100.00
10618;BME280;5356;43.526;26.534;2023-01-25T04:30:53;100660.09;;;1.79;100.00
10618;BME280;5356;43.526;26.534;2023-01-25T04:33:18;100669.09;;;1.86;100.00
10618;BME280;5356;43.526;26.534;2023-01-25T04:35:44;100661.78;;;2.01;100.00
10618;BME280;5356;43.526;26.534;2023-01-25T04:38:10;100675.59;;;2.03;100.00
10618;BME280;5356;43.526;26.534;2023-01-25T04:40:35;100664.41;;;2.01;100.00
10618;BME280;5356;43.526;26.534;2023-01-25T04:43:01;100671.22;;;1.92;100.00
10618;BME280;5356;43.526;26.534;2023-01-25T04:45:27;100666.94;;;1.91;100.00
10618;BME280;5356;43.526;26.534;2023-01-25T04:47:57;100669.38;;;1.83;100.00
10618;BME280;5356;43.526;26.534;2023-01-25T04:50:23;100667.97;;;1.79;100.00
10618;BME280;5356;43.526;26.534;2023-01-25T04:52:49;100665.53;;;1.87;100.00
10618;BME280;5356;43.526;26.534;2023-01-25T04:55:14;100661.69;;;1.91;100.00
10618;BME280;5356;43.526;26.534;2023-01-25T04:57:40;100666.69;;;1.94;100.00
10618;BME280;5356;43.526;26.534;2023-01-25T05:00:06;100674.38;;;1.86;100.00
10618;BME280;5356;43.526;26.534;2023-01-25T05:02:32;100666.16;;;1.79;100.00
10618;BME280;5356;43.526;26.534;2023-01-25T05:04:57;100660.59;;;1.94;100.00
10618;BME280;5356;43.526;26.534;2023-01-25T05:07:23;100667.59;;;2.05;100.00
10618;BME280;5356;43.526;26.534;2023-01-25T05:09:48;100668.16;;;2.08;100.00
10618;BME280;5356;43.526;26.534;2023-01-25T05:12:14;100669.66;;;2.01;100.00
10618;BME280;5356;43.526;26.534;2023-01-25T05:14:39;100668.13;;;1.98;100.00
10618;BME280;5356;43.526;26.534;2023-01-25T05:17:05;100666.78;;;2.04;100.00
10618;BME280;5356;43.526;26.534;2023-01-25T05:19:32;100675.78;;;2.11;100.00
10618;BME280;5356;43.526;26.534;2023-01-25T05:21:58;100667.78;;;2.13;100.00
10618;BME280;5356;43.526;26.534;2023-01-25T05:24:28;100671.78;;;2.07;100.00
10618;BME280;5356;43.526;26.534;2023-01-25T05:26:54;100668.53;;;2.03;100.00
10618;BME280;5356;43.526;26.534;2023-01-25T05:29:40;100675.34;;;2.06;100.00
10618;BME280;5356;43.526;26.534;2023-01-25T05:32:09;100676.00;;;2.19;100.00
10618;BME280;5356;43.526;26.534;2023-01-25T05:34:35;100672.13;;;2.23;100.00
10618;BME280;5356;43.526;26.534;2023-01-25T05:37:02;100673.19;;;2.32;100.00
10618;BME280;5356;43.526;26.534;2023-01-25T05:39:27;100677.38;;;2.44;100.00
10618;BME280;5356;43.526;26.534;2023-01-25T05:41:53;100679.19;;;2.44;100.00
10618;BME280;5356;43.526;26.534;2023-01-25T05:44:18;100680.72;;;2.46;100.00
10618;BME280;5356;43.526;26.534;2023-01-25T05:46:44;100676.69;;;2.42;100.00
10618;BME280;5356;43.526;26.534;2023-01-25T05:49:10;100672.84;;;2.46;100.00
10618;BME280;5356;43.526;26.534;2023-01-25T05:51:36;100683.28;;;2.37;100.00
10618;BME280;5356;43.526;26.534;2023-01-25T05:54:06;100680.53;;;2.38;100.00
10618;BME280;5356;43.526;26.534;2023-01-25T05:56:33;100678.84;;;2.37;100.00
10618;BME280;5356;43.526;26.534;2023-01-25T05:58:59;100673.19;;;2.32;100.00
10618;BME280;5356;43.526;26.534;2023-01-25T06:01:26;100681.28;;;2.29;100.00
10618;BME280;5356;43.526;26.534;2023-01-25T06:03:52;100682.28;;;2.28;100.00
10618;BME280;5356;43.526;26.534;2023-01-25T06:06:19;100686.56;;;2.29;100.00
10618;BME280;5356;43.526;26.534;2023-01-25T06:08:45;100689.63;;;2.34;100.00
10618;BME280;5356;43.526;26.534;2023-01-25T06:11:13;100684.25;;;2.36;100.00
10618;BME280;5356;43.526;26.534;2023-01-25T06:13:40;100692.34;;;2.23;100.00
10618;BME280;5356;43.526;26.534;2023-01-25T06:16:05;100688.81;;;2.13;100.00
10618;BME280;5356;43.526;26.534;2023-01-25T06:18:32;100693.34;;;2.32;100.00
10618;BME280;5356;43.526;26.534;2023-01-25T06:20:58;100694.13;;;2.22;100.00
10618;BME280;5356;43.526;26.534;2023-01-25T06:23:24;100698.47;;;2.12;100.00
10618;BME280;5356;43.526;26.534;2023-01-25T06:25:50;100693.72;;;2.06;100.00
10618;BME280;5356;43.526;26.534;2023-01-25T06:28:15;100692.66;;;2.09;100.00
10618;BME280;5356;43.526;26.534;2023-01-25T06:30:41;100693.09;;;2.14;100.00
10618;BME280;5356;43.526;26.534;2023-01-25T06:33:07;100694.56;;;2.07;100.00
10618;BME280;5356;43.526;26.534;2023-01-25T06:35:33;100684.28;;;1.83;100.00
10618;BME280;5356;43.526;26.534;2023-01-25T06:37:59;100683.63;;;2.01;100.00
10618;BME280;5356;43.526;26.534;2023-01-25T06:40:26;100694.09;;;2.13;100.00
10618;BME280;5356;43.526;26.534;2023-01-25T06:42:51;100687.03;;;2.13;100.00
10618;BME280;5356;43.526;26.534;2023-01-25T06:45:17;100689.50;;;2.15;100.00
10618;BME280;5356;43.526;26.534;2023-01-25T06:47:42;100695.94;;;2.22;100.00
10618;BME280;5356;43.526;26.534;2023-01-25T06:50:09;100703.56;;;2.25;100.00
10618;BME280;5356;43.526;26.534;2023-01-25T06:52:35;100704.03;;;2.30;100.00
10618;BME280;5356;43.526;26.534;2023-01-25T06:55:07;100695.69;;;2.25;100.00
10618;BME280;5356;43.526;26.534;2023-01-25T06:57:38;100695.56;;;2.27;100.00
10618;BME280;5356;43.526;26.534;2023-01-25T07:00:04;100697.53;;;2.34;100.00
10618;BME280;5356;43.526;26.534;2023-01-25T07:02:30;100694.97;;;2.23;100.00
10618;BME280;5356;43.526;26.534;2023-01-25T07:04:55;100697.47;;;2.24;100.00
10618;BME280;5356;43.526;26.534;2023-01-25T07:07:21;100701.00;;;2.14;100.00
10618;BME280;5356;43.526;26.534;2023-01-25T07:09:46;100708.88;;;2.14;100.00
10618;BME280;5356;43.526;26.534;2023-01-25T07:12:11;100702.41;;;2.18;100.00
10618;BME280;5356;43.526;26.534;2023-01-25T07:14:37;100701.25;;;2.11;100.00
10618;BME280;5356;43.526;26.534;2023-01-25T07:17:02;100693.88;;;2.05;100.00
10618;BME280;5356;43.526;26.534;2023-01-25T07:19:28;100696.44;;;2.16;100.00
10618;BME280;5356;43.526;26.534;2023-01-25T07:21:53;100699.91;;;2.16;100.00
10618;BME280;5356;43.526;26.534;2023-01-25T07:24:19;100699.66;;;2.19;100.00
10618;BME280;5356;43.526;26.534;2023-01-25T07:26:45;100706.63;;;2.09;100.00
10618;BME280;5356;43.526;26.534;2023-01-25T07:29:13;100704.00;;;2.09;100.00
10618;BME280;5356;43.526;26.534;2023-01-25T07:31:39;100698.25;;;2.15;100.00
10618;BME280;5356;43.526;26.534;2023-01-25T07:34:08;100699.91;;;2.16;100.00
10618;BME280;5356;43.526;26.534;2023-01-25T07:36:34;100698.41;;;2.23;100.00
10618;BME280;5356;43.526;26.534;2023-01-25T07:39:00;100692.72;;;2.18;100.00
10618;BME280;5356;43.526;26.534;2023-01-25T07:41:26;100693.81;;;2.16;100.00
10618;BME280;5356;43.526;26.534;2023-01-25T07:43:52;100699.03;;;2.27;100.00
10618;BME280;5356;43.526;26.534;2023-01-25T07:46:18;100697.06;;;2.29;100.00
10618;BME280;5356;43.526;26.534;2023-01-25T07:48:48;100697.34;;;2.26;100.00
10618;BME280;5356;43.526;26.534;2023-01-25T07:51:14;100709.28;;;2.30;100.00
10618;BME280;5356;43.526;26.534;2023-01-25T07:53:52;100697.16;;;2.39;100.00
10618;BME280;5356;43.526;26.534;2023-01-25T07:56:25;100690.41;;;2.46;100.00
10618;BME280;5356;43.526;26.534;2023-01-25T07:58:57;100686.66;;;2.48;100.00
10618;BME280;5356;43.526;26.534;2023-01-25T08:01:25;100685.84;;;2.48;100.00
10618;BME280;5356;43.526;26.534;2023-01-25T08:03:52;100691.63;;;2.42;100.00
10618;BME280;5356;43.526;26.534;2023-01-25T08:06:26;100703.44;;;2.47;100.00
10618;BME280;5356;43.526;26.534;2023-01-25T08:08:55;100710.16;;;2.40;100.00
10618;BME280;5356;43.526;26.534;2023-01-25T08:11:26;100708.75;;;2.36;100.00
10618;BME280;5356;43.526;26.534;2023-01-25T08:13:52;100701.25;;;2.53;100.00
10618;BME280;5356;43.526;26.534;2023-01-25T08:16:19;100694.31;;;2.52;100.00
10618;BME280;5356;43.526;26.534;2023-01-25T08:18:50;100703.94;;;2.41;100.00
10618;BME280;5356;43.526;26.534;2023-01-25T08:21:15;100705.22;;;2.47;100.00
10618;BME280;5356;43.526;26.534;2023-01-25T08:23:41;100700.09;;;2.45;100.00
10618;BME280;5356;43.526;26.534;2023-01-25T08:26:09;100697.25;;;2.37;100.00
10618;BME280;5356;43.526;26.534;2023-01-25T08:28:35;100702.19;;;2.52;100.00
10618;BME280;5356;43.526;26.534;2023-01-25T08:31:08;100689.03;;;2.73;100.00
10618;BME280;5356;43.526;26.534;2023-01-25T08:33:34;100693.09;;;2.56;100.00
10618;BME280;5356;43.526;26.534;2023-01-25T08:36:00;100696.28;;;2.59;100.00
10618;BME280;5356;43.526;26.534;2023-01-25T08:38:25;100686.47;;;2.61;100.00
10618;BME280;5356;43.526;26.534;2023-01-25T08:40:51;100696.47;;;2.67;100.00
10618;BME280;5356;43.526;26.534;2023-01-25T08:43:16;100690.75;;;2.83;100.00
10618;BME280;5356;43.526;26.534;2023-01-25T08:45:42;100692.56;;;2.92;100.00
10618;BME280;5356;43.526;26.534;2023-01-25T08:48:07;100690.66;;;2.95;100.00
10618;BME280;5356;43.526;26.534;2023-01-25T08:50:33;100687.84;;;2.86;100.00
10618;BME280;5356;43.526;26.534;2023-01-25T08:52:58;100678.78;;;2.79;100.00
10618;BME280;5356;43.526;26.534;2023-01-25T08:55:24;100683.13;;;2.59;100.00
10618;BME280;5356;43.526;26.534;2023-01-25T08:57:49;100678.41;;;2.53;100.00
10618;BME280;5356;43.526;26.534;2023-01-25T09:00:15;100687.41;;;2.30;100.00
10618;BME280;5356;43.526;26.534;2023-01-25T09:02:41;100675.28;;;2.38;100.00
10618;BME280;5356;43.526;26.534;2023-01-25T09:05:06;100673.41;;;2.50;100.00
10618;BME280;5356;43.526;26.534;2023-01-25T09:07:32;100672.09;;;2.65;100.00
10618;BME280;5356;43.526;26.534;2023-01-25T09:10:02;100662.88;;;2.81;100.00
10618;BME280;5356;43.526;26.534;2023-01-25T09:12:28;100660.81;;;2.84;100.00
10618;BME280;5356;43.526;26.534;2023-01-25T09:14:53;100664.16;;;2.86;100.00
10618;BME280;5356;43.526;26.534;2023-01-25T09:17:19;100661.19;;;2.70;100.00
10618;BME280;5356;43.526;26.534;2023-01-25T09:19:46;100664.34;;;2.64;100.00
10618;BME280;5356;43.526;26.534;2023-01-25T09:22:12;100658.66;;;2.68;100.00
10618;BME280;5356;43.526;26.534;2023-01-25T09:24:37;100644.72;;;2.78;100.00
10618;BME280;5356;43.526;26.534;2023-01-25T09:27:03;100637.41;;;2.91;100.00
10618;BME280;5356;43.526;26.534;2023-01-25T09:29:28;100635.50;;;3.03;100.00
10618;BME280;5356;43.526;26.534;2023-01-25T09:31:54;100631.31;;;2.90;100.00
10618;BME280;5356;43.526;26.534;2023-01-25T09:34:19;100626.22;;;2.99;100.00
10618;BME280;5356;43.526;26.534;2023-01-25T09:36:46;100623.75;;;3.07;100.00
10618;BME280;5356;43.526;26.534;2023-01-25T09:39:12;100618.09;;;3.11;100.00
10618;BME280;5356;43.526;26.534;2023-01-25T09:46:57;100604.56;;;2.85;100.00
10618;BME280;5356;43.526;26.534;2023-01-25T09:54:43;100612.41;;;3.16;100.00
10618;BME280;5356;43.526;26.534;2023-01-25T09:57:16;100613.78;;;3.10;100.00
10618;BME280;5356;43.526;26.534;2023-01-25T09:59:46;100612.09;;;3.00;100.00
10618;BME280;5356;43.526;26.534;2023-01-25T10:04:56;100603.50;;;3.07;100.00
10618;BME280;5356;43.526;26.534;2023-01-25T10:07:49;100607.41;;;3.13;100.00
10618;BME280;5356;43.526;26.534;2023-01-25T10:10:31;100602.53;;;2.99;100.00
10618;BME280;5356;43.526;26.534;2023-01-25T10:12:58;100596.84;;;2.93;100.00
10618;BME280;5356;43.526;26.534;2023-01-25T10:15:30;100593.78;;;2.88;100.00
10618;BME280;5356;43.526;26.534;2023-01-25T10:18:19;100588.13;;;2.93;100.00
10618;BME280;5356;43.526;26.534;2023-01-25T10:20:48;100577.97;;;2.88;100.00
10618;BME280;5356;43.526;26.534;2023-01-25T10:26:00;100578.84;;;2.89;100.00
10618;BME280;5356;43.526;26.534;2023-01-25T10:28:32;100582.03;;;2.92;100.00
10618;BME280;5356;43.526;26.534;2023-01-25T10:31:25;100571.34;;;2.84;100.00
10618;BME280;5356;43.526;26.534;2023-01-25T10:33:54;100565.09;;;2.76;100.00
10618;BME280;5356;43.526;26.534;2023-01-25T10:36:26;100557.63;;;2.81;100.00
10618;BME280;5356;43.526;26.534;2023-01-25T10:38:53;100560.53;;;2.87;100.00
10618;BME280;5356;43.526;26.534;2023-01-25T10:43:59;100546.66;;;2.76;100.00
10618;BME280;5356;43.526;26.534;2023-01-25T10:46:56;100542.66;;;2.81;100.00
10618;BME280;5356;43.526;26.534;2023-01-25T10:49:46;100536.16;;;2.76;100.00
10618;BME280;5356;43.526;26.534;2023-01-25T10:54:44;100529.03;;;2.57;100.00
10618;BME280;5356;43.526;26.534;2023-01-25T10:57:19;100529.75;;;2.59;100.00
10618;BME280;5356;43.526;26.534;2023-01-25T10:59:49;100529.47;;;2.72;100.00
10618;BME280;5356;43.526;26.534;2023-01-25T11:07:51;100508.97;;;2.56;100.00
10618;BME280;5356;43.526;26.534;2023-01-25T11:10:27;100498.69;;;2.43;100.00
10618;BME280;5356;43.526;26.534;2023-01-25T11:15:36;100491.50;;;2.55;100.00
10618;BME280;5356;43.526;26.534;2023-01-25T11:18:06;100496.25;;;2.61;100.00
10618;BME280;5356;43.526;26.534;2023-01-25T11:20:36;100486.81;;;2.58;100.00
10618;BME280;5356;43.526;26.534;2023-01-25T11:23:02;100486.69;;;2.79;100.00
10618;BME280;5356;43.526;26.534;2023-01-25T11:25:30;100485.06;;;2.78;100.00
10618;BME280;5356;43.526;26.534;2023-01-25T11:28:19;100477.97;;;2.79;100.00
10618;BME280;5356;43.526;26.534;2023-01-25T11:30:46;100475.63;;;2.76;100.00
10618;BME280;5356;43.526;26.534;2023-01-25T11:33:13;100471.59;;;2.91;100.00
10618;BME280;5356;43.526;26.534;2023-01-25T11:38:18;100470.91;;;2.79;100.00
10618;BME280;5356;43.526;26.534;2023-01-25T11:46:41;100464.81;;;2.88;100.00
10618;BME280;5356;43.526;26.534;2023-01-25T11:52:17;100463.84;;;2.99;100.00
10618;BME280;5356;43.526;26.534;2023-01-25T12:31:49;100434.22;;;2.87;100.00
10618;BME280;5356;43.526;26.534;2023-01-25T12:34:48;100424.50;;;3.07;100.00
10618;BME280;5356;43.526;26.534;2023-01-25T12:37:23;100424.66;;;3.06;100.00
10618;BME280;5356;43.526;26.534;2023-01-25T12:40:00;100426.84;;;3.10;100.00
10618;BME280;5356;43.526;26.534;2023-01-25T12:42:39;100421.59;;;3.20;100.00
10618;BME280;5356;43.526;26.534;2023-01-25T12:45:17;100422.81;;;3.16;100.00
10618;BME280;5356;43.526;26.534;2023-01-25T12:48:17;100430.44;;;3.19;100.00
10618;BME280;5356;43.526;26.534;2023-01-25T12:50:47;100420.19;;;3.16;100.00
10618;BME280;5356;43.526;26.534;2023-01-25T12:53:32;100412.28;;;3.16;100.00
10618;BME280;5356;43.526;26.534;2023-01-25T12:56:00;100410.66;;;3.15;100.00
10618;BME280;5356;43.526;26.534;2023-01-25T12:58:28;100414.66;;;3.19;100.00
10618;BME280;5356;43.526;26.534;2023-01-25T13:03:42;100415.91;;;3.15;100.00
10618;BME280;5356;43.526;26.534;2023-01-25T13:12:17;100409.53;;;3.08;100.00
10618;BME280;5356;43.526;26.534;2023-01-25T13:14:42;100415.38;;;3.02;100.00
10618;BME280;5356;43.526;26.534;2023-01-25T13:19:52;100416.03;;;3.13;100.00
10618;BME280;5356;43.526;26.534;2023-01-25T13:27:41;100408.41;;;3.10;100.00
10618;BME280;5356;43.526;26.534;2023-01-25T13:35:34;100406.78;;;3.00;100.00
10618;BME280;5356;43.526;26.534;2023-01-25T13:38:31;100409.81;;;3.05;100.00
10618;BME280;5356;43.526;26.534;2023-01-25T13:41:16;100414.50;;;3.11;100.00
10618;BME280;5356;43.526;26.534;2023-01-25T13:43:45;100398.19;;;3.07;100.00
10618;BME280;5356;43.526;26.534;2023-01-25T13:46:14;100403.97;;;3.11;100.00
10618;BME280;5356;43.526;26.534;2023-01-25T13:49:12;100410.09;;;3.11;100.00
10618;BME280;5356;43.526;26.534;2023-01-25T13:51:41;100407.19;;;3.05;100.00
10618;BME280;5356;43.526;26.534;2023-01-25T13:54:14;100404.41;;;3.16;100.00
10618;BME280;5356;43.526;26.534;2023-01-25T13:56:40;100400.66;;;3.19;100.00
10618;BME280;5356;43.526;26.534;2023-01-25T13:59:05;100399.56;;;3.11;100.00
10618;BME280;5356;43.526;26.534;2023-01-25T14:01:33;100400.13;;;3.15;100.00
10618;BME280;5356;43.526;26.534;2023-01-25T14:04:03;100393.69;;;3.27;100.00
10618;BME280;5356;43.526;26.534;2023-01-25T14:06:39;100392.53;;;3.40;100.00
10618;BME280;5356;43.526;26.534;2023-01-25T14:09:12;100385.75;;;3.47;100.00
10618;BME280;5356;43.526;26.534;2023-01-25T14:11:54;100388.91;;;3.50;100.00
10618;BME280;5356;43.526;26.534;2023-01-25T14:14:34;100388.50;;;3.45;100.00
10618;BME280;5356;43.526;26.534;2023-01-25T14:19:28;100380.94;;;3.23;100.00
10618;BME280;5356;43.526;26.534;2023-01-25T14:22:11;100388.16;;;3.30;100.00
10618;BME280;5356;43.526;26.534;2023-01-25T14:24:36;100391.19;;;3.35;100.00
10618;BME280;5356;43.526;26.534;2023-01-25T14:27:03;100389.72;;;3.23;100.00
10618;BME280;5356;43.526;26.534;2023-01-25T14:29:31;100396.03;;;3.30;100.00
10618;BME280;5356;43.526;26.534;2023-01-25T14:31:58;100385.88;;;3.45;100.00
10618;BME280;5356;43.526;26.534;2023-01-25T14:34:25;100386.41;;;3.58;100.00
10618;BME280;5356;43.526;26.534;2023-01-25T14:37:04;100391.91;;;3.65;100.00
10618;BME280;5356;43.526;26.534;2023-01-25T14:39:32;100397.44;;;3.34;100.00
10618;BME280;5356;43.526;26.534;2023-01-25T14:41:57;100392.53;;;3.40;100.00
10618;BME280;5356;43.526;26.534;2023-01-25T14:44:23;100388.38;;;3.47;100.00
10618;BME280;5356;43.526;26.534;2023-01-25T14:47:18;100403.38;;;3.36;100.00
10618;BME280;5356;43.526;26.534;2023-01-25T14:49:46;100397.72;;;3.31;100.00
10618;BME280;5356;43.526;26.534;2023-01-25T14:52:13;100397.97;;;3.38;100.00
10618;BME280;5356;43.526;26.534;2023-01-25T14:54:55;100392.59;;;3.30;100.00